sensor_id;sensor_type;location;lat;lon;timestamp;P1;durP1;ratioP1;P2;durP2;ratioP2
64011;SDS011;50211;52.768;12.124;2023-06-10T00:01:49;6.83;;;3.57;;
64011;SDS011;50211;52.768;12.124;2023-06-10T00:04:15;10.57;;;4.00;;
64011;SDS011;50211;52.768;12.124;2023-06-10T00:06:41;5.53;;;3.55;;
64011;SDS011;50211;52.768;12.124;2023-06-10T00:09:08;7.93;;;3.95;;
64011;SDS011;50211;52.768;12.124;2023-06-10T00:11:35;11.02;;;4.28;;
64011;SDS011;50211;52.768;12.124;2023-06-10T00:14:01;7.32;;;4.00;;
64011;SDS011;50211;52.768;12.124;2023-06-10T00:16:27;7.15;;;4.05;;
64011;SDS011;50211;52.768;12.124;2023-06-10T00:18:53;8.02;;;4.32;;
64011;SDS011;50211;52.768;12.124;2023-06-10T00:21:26;5.93;;;3.30;;
64011;SDS011;50211;52.768;12.124;2023-06-10T00:23:52;11.10;;;4.43;;
64011;SDS011;50211;52.768;12.124;2023-06-10T00:26:18;6.97;;;4.33;;
64011;SDS011;50211;52.768;12.124;2023-06-10T00:28:43;9.53;;;4.23;;
64011;SDS011;50211;52.768;12.124;2023-06-10T00:31:10;7.35;;;3.88;;
64011;SDS011;50211;52.768;12.124;2023-06-10T00:33:35;8.00;;;3.72;;
64011;SDS011;50211;52.768;12.124;2023-06-10T00:36:01;9.02;;;3.72;;
64011;SDS011;50211;52.768;12.124;2023-06-10T00:38:26;8.38;;;3.60;;
64011;SDS011;50211;52.768;12.124;2023-06-10T00:40:52;8.43;;;3.80;;
64011;SDS011;50211;52.768;12.124;2023-06-10T00:43:17;10.85;;;3.75;;
64011;SDS011;50211;52.768;12.124;2023-06-10T00:45:43;9.65;;;4.70;;
64011;SDS011;50211;52.768;12.124;2023-06-10T00:48:08;6.68;;;3.60;;
64011;SDS011;50211;52.768;12.124;2023-06-10T00:50:35;6.22;;;3.35;;
64011;SDS011;50211;52.768;12.124;2023-06-10T00:53:04;7.83;;;3.67;;
64011;SDS011;50211;52.768;12.124;2023-06-10T00:55:30;6.23;;;3.63;;
64011;SDS011;50211;52.768;12.124;2023-06-10T00:57:57;9.40;;;3.65;;
64011;SDS011;50211;52.768;12.124;2023-06-10T01:00:23;8.17;;;3.63;;
64011;SDS011;50211;52.768;12.124;2023-06-10T01:02:49;6.40;;;3.50;;
64011;SDS011;50211;52.768;12.124;2023-06-10T01:05:17;8.10;;;3.85;;
64011;SDS011;50211;52.768;12.124;2023-06-10T01:07:45;10.73;;;3.57;;
64011;SDS011;50211;52.768;12.124;2023-06-10T01:13:00;11.02;;;3.22;;
64011;SDS011;50211;52.768;12.124;2023-06-10T01:15:31;8.32;;;3.90;;
64011;SDS011;50211;52.768;12.124;2023-06-10T01:18:01;8.07;;;3.80;;
64011;SDS011;50211;52.768;12.124;2023-06-10T01:20:29;7.83;;;3.40;;
64011;SDS011;50211;52.768;12.124;2023-06-10T01:22:57;9.87;;;3.60;;
64011;SDS011;50211;52.768;12.124;2023-06-10T01:25:24;9.15;;;3.55;;
64011;SDS011;50211;52.768;12.124;2023-06-10T01:28:01;6.03;;;3.60;;
64011;SDS011;50211;52.768;12.124;2023-06-10T01:31:14;6.30;;;3.67;;
64011;SDS011;50211;52.768;12.124;2023-06-10T01:33:58;9.13;;;3.23;;
64011;SDS011;50211;52.768;12.124;2023-06-10T01:36:25;7.85;;;3.50;;
64011;SDS011;50211;52.768;12.124;2023-06-10T01:38:51;9.23;;;3.30;;
64011;SDS011;50211;52.768;12.124;2023-06-10T01:41:18;6.93;;;3.33;;
64011;SDS011;50211;52.768;12.124;2023-06-10T01:43:46;9.17;;;3.50;;
64011;SDS011;50211;52.768;12.124;2023-06-10T01:46:12;6.72;;;3.40;;
64011;SDS011;50211;52.768;12.124;2023-06-10T01:48:38;8.17;;;3.63;;
64011;SDS011;50211;52.768;12.124;2023-06-10T01:51:04;6.77;;;2.90;;
64011;SDS011;50211;52.768;12.124;2023-06-10T01:53:29;7.18;;;2.90;;
64011;SDS011;50211;52.768;12.124;2023-06-10T01:55:55;7.38;;;3.58;;
64011;SDS011;50211;52.768;12.124;2023-06-10T01:58:21;5.00;;;3.00;;
64011;SDS011;50211;52.768;12.124;2023-06-10T02:00:46;7.63;;;3.30;;
64011;SDS011;50211;52.768;12.124;2023-06-10T02:03:12;7.97;;;3.73;;
64011;SDS011;50211;52.768;12.124;2023-06-10T02:05:37;10.23;;;3.17;;
64011;SDS011;50211;52.768;12.124;2023-06-10T02:08:04;7.77;;;2.97;;
64011;SDS011;50211;52.768;12.124;2023-06-10T02:10:29;5.78;;;2.80;;
64011;SDS011;50211;52.768;12.124;2023-06-10T02:12:55;9.60;;;3.53;;
64011;SDS011;50211;52.768;12.124;2023-06-10T02:15:20;6.73;;;3.20;;
64011;SDS011;50211;52.768;12.124;2023-06-10T02:17:46;8.50;;;2.93;;
64011;SDS011;50211;52.768;12.124;2023-06-10T02:20:11;6.67;;;3.63;;
64011;SDS011;50211;52.768;12.124;2023-06-10T02:22:38;9.80;;;3.17;;
64011;SDS011;50211;52.768;12.124;2023-06-10T02:25:04;4.60;;;2.80;;
64011;SDS011;50211;52.768;12.124;2023-06-10T02:27:30;8.35;;;2.90;;
64011;SDS011;50211;52.768;12.124;2023-06-10T02:29:56;7.80;;;3.20;;
64011;SDS011;50211;52.768;12.124;2023-06-10T02:32:22;8.07;;;3.00;;
64011;SDS011;50211;52.768;12.124;2023-06-10T02:34:48;7.87;;;2.97;;
64011;SDS011;50211;52.768;12.124;2023-06-10T02:37:16;4.83;;;2.73;;
64011;SDS011;50211;52.768;12.124;2023-06-10T02:39:42;9.53;;;3.97;;
64011;SDS011;50211;52.768;12.124;2023-06-10T02:42:07;4.67;;;2.80;;
64011;SDS011;50211;52.768;12.124;2023-06-10T02:44:33;5.80;;;3.37;;
64011;SDS011;50211;52.768;12.124;2023-06-10T02:46:59;6.87;;;2.93;;
64011;SDS011;50211;52.768;12.124;2023-06-10T02:49:24;8.60;;;2.80;;
64011;SDS011;50211;52.768;12.124;2023-06-10T02:51:52;7.68;;;2.83;;
64011;SDS011;50211;52.768;12.124;2023-06-10T02:54:19;8.40;;;3.40;;
64011;SDS011;50211;52.768;12.124;2023-06-10T02:56:44;5.15;;;2.50;;
64011;SDS011;50211;52.768;12.124;2023-06-10T02:59:10;6.87;;;3.20;;
64011;SDS011;50211;52.768;12.124;2023-06-10T03:01:36;4.97;;;2.30;;
64011;SDS011;50211;52.768;12.124;2023-06-10T03:04:02;5.07;;;2.60;;
64011;SDS011;50211;52.768;12.124;2023-06-10T03:06:29;4.87;;;2.53;;
64011;SDS011;50211;52.768;12.124;2023-06-10T03:08:54;6.60;;;2.80;;
64011;SDS011;50211;52.768;12.124;2023-06-10T03:11:20;6.13;;;2.90;;
64011;SDS011;50211;52.768;12.124;2023-06-10T03:13:45;12.73;;;3.60;;
64011;SDS011;50211;52.768;12.124;2023-06-10T03:16:11;10.87;;;2.83;;
64011;SDS011;50211;52.768;12.124;2023-06-10T03:18:37;8.73;;;2.70;;
64011;SDS011;50211;52.768;12.124;2023-06-10T03:21:03;7.07;;;2.87;;
64011;SDS011;50211;52.768;12.124;2023-06-10T03:23:28;6.53;;;3.05;;
64011;SDS011;50211;52.768;12.124;2023-06-10T03:25:54;9.25;;;2.65;;
64011;SDS011;50211;52.768;12.124;2023-06-10T03:28:20;4.63;;;2.33;;
64011;SDS011;50211;52.768;12.124;2023-06-10T03:30:46;4.93;;;2.38;;
64011;SDS011;50211;52.768;12.124;2023-06-10T03:33:12;5.93;;;2.73;;
64011;SDS011;50211;52.768;12.124;2023-06-10T03:35:38;9.00;;;2.80;;
64011;SDS011;50211;52.768;12.124;2023-06-10T03:38:04;9.02;;;2.42;;
64011;SDS011;50211;52.768;12.124;2023-06-10T03:40:30;7.95;;;2.63;;
64011;SDS011;50211;52.768;12.124;2023-06-10T03:42:56;7.13;;;2.33;;
64011;SDS011;50211;52.768;12.124;2023-06-10T03:45:22;8.88;;;2.85;;
64011;SDS011;50211;52.768;12.124;2023-06-10T03:47:49;5.07;;;2.53;;
64011;SDS011;50211;52.768;12.124;2023-06-10T03:50:15;5.45;;;2.60;;
64011;SDS011;50211;52.768;12.124;2023-06-10T03:52:41;8.30;;;2.23;;
64011;SDS011;50211;52.768;12.124;2023-06-10T03:55:07;5.85;;;2.65;;
64011;SDS011;50211;52.768;12.124;2023-06-10T03:57:32;7.57;;;2.45;;
64011;SDS011;50211;52.768;12.124;2023-06-10T03:59:58;6.68;;;2.60;;
64011;SDS011;50211;52.768;12.124;2023-06-10T04:02:23;9.55;;;2.78;;
64011;SDS011;50211;52.768;12.124;2023-06-10T04:04:50;6.28;;;2.38;;
64011;SDS011;50211;52.768;12.124;2023-06-10T04:07:16;6.05;;;2.47;;
64011;SDS011;50211;52.768;12.124;2023-06-10T04:09:41;9.63;;;3.40;;
64011;SDS011;50211;52.768;12.124;2023-06-10T04:12:07;10.85;;;3.17;;
64011;SDS011;50211;52.768;12.124;2023-06-10T04:14:35;6.67;;;2.20;;
64011;SDS011;50211;52.768;12.124;2023-06-10T04:17:04;6.85;;;2.60;;
64011;SDS011;50211;52.768;12.124;2023-06-10T04:19:33;9.27;;;2.63;;
64011;SDS011;50211;52.768;12.124;2023-06-10T04:22:00;9.52;;;2.45;;
64011;SDS011;50211;52.768;12.124;2023-06-10T04:24:26;4.65;;;2.40;;
64011;SDS011;50211;52.768;12.124;2023-06-10T04:26:51;7.18;;;2.53;;
64011;SDS011;50211;52.768;12.124;2023-06-10T04:29:17;11.75;;;3.30;;
64011;SDS011;50211;52.768;12.124;2023-06-10T04:31:42;7.38;;;2.72;;
64011;SDS011;50211;52.768;12.124;2023-06-10T04:34:08;12.73;;;3.55;;
64011;SDS011;50211;52.768;12.124;2023-06-10T04:36:33;9.68;;;3.30;;
64011;SDS011;50211;52.768;12.124;2023-06-10T04:38:58;8.60;;;2.85;;
64011;SDS011;50211;52.768;12.124;2023-06-10T04:41:24;7.30;;;2.53;;
64011;SDS011;50211;52.768;12.124;2023-06-10T04:43:53;6.05;;;2.60;;
64011;SDS011;50211;52.768;12.124;2023-06-10T04:46:18;13.50;;;2.80;;
64011;SDS011;50211;52.768;12.124;2023-06-10T04:48:44;7.95;;;2.58;;
64011;SDS011;50211;52.768;12.124;2023-06-10T04:51:11;8.45;;;2.88;;
64011;SDS011;50211;52.768;12.124;2023-06-10T04:53:38;12.68;;;3.08;;
64011;SDS011;50211;52.768;12.124;2023-06-10T04:56:03;12.13;;;3.92;;
64011;SDS011;50211;52.768;12.124;2023-06-10T04:58:29;11.25;;;3.28;;
64011;SDS011;50211;52.768;12.124;2023-06-10T05:00:55;8.55;;;3.30;;
64011;SDS011;50211;52.768;12.124;2023-06-10T05:03:20;11.25;;;2.80;;
64011;SDS011;50211;52.768;12.124;2023-06-10T05:05:46;10.00;;;2.80;;
64011;SDS011;50211;52.768;12.124;2023-06-10T05:08:11;9.07;;;2.75;;
64011;SDS011;50211;52.768;12.124;2023-06-10T05:10:37;4.75;;;2.53;;
64011;SDS011;50211;52.768;12.124;2023-06-10T05:13:02;9.65;;;3.03;;
64011;SDS011;50211;52.768;12.124;2023-06-10T05:15:28;9.95;;;2.90;;
64011;SDS011;50211;52.768;12.124;2023-06-10T05:17:56;11.77;;;2.58;;
64011;SDS011;50211;52.768;12.124;2023-06-10T05:20:22;8.35;;;2.70;;
64011;SDS011;50211;52.768;12.124;2023-06-10T05:22:47;8.73;;;2.78;;
64011;SDS011;50211;52.768;12.124;2023-06-10T05:25:13;8.23;;;3.15;;
64011;SDS011;50211;52.768;12.124;2023-06-10T05:27:38;9.50;;;2.85;;
64011;SDS011;50211;52.768;12.124;2023-06-10T05:30:07;8.55;;;2.90;;
64011;SDS011;50211;52.768;12.124;2023-06-10T05:32:33;13.52;;;3.13;;
64011;SDS011;50211;52.768;12.124;2023-06-10T05:34:58;10.55;;;3.42;;
64011;SDS011;50211;52.768;12.124;2023-06-10T05:37:25;9.02;;;2.90;;
64011;SDS011;50211;52.768;12.124;2023-06-10T05:39:51;8.32;;;3.35;;
64011;SDS011;50211;52.768;12.124;2023-06-10T05:42:16;11.63;;;3.50;;
64011;SDS011;50211;52.768;12.124;2023-06-10T05:44:42;12.52;;;3.00;;
64011;SDS011;50211;52.768;12.124;2023-06-10T05:47:08;11.10;;;3.40;;
64011;SDS011;50211;52.768;12.124;2023-06-10T05:49:33;6.28;;;2.65;;
64011;SDS011;50211;52.768;12.124;2023-06-10T05:51:59;9.75;;;3.45;;
64011;SDS011;50211;52.768;12.124;2023-06-10T05:54:25;10.80;;;3.50;;
64011;SDS011;50211;52.768;12.124;2023-06-10T05:56:51;11.32;;;3.22;;
64011;SDS011;50211;52.768;12.124;2023-06-10T05:59:17;12.10;;;3.33;;
64011;SDS011;50211;52.768;12.124;2023-06-10T06:01:42;7.85;;;3.58;;
64011;SDS011;50211;52.768;12.124;2023-06-10T06:04:08;6.70;;;3.25;;
64011;SDS011;50211;52.768;12.124;2023-06-10T06:06:34;9.45;;;3.28;;
64011;SDS011;50211;52.768;12.124;2023-06-10T06:09:00;9.77;;;2.95;;
64011;SDS011;50211;52.768;12.124;2023-06-10T06:11:26;6.57;;;3.50;;
64011;SDS011;50211;52.768;12.124;2023-06-10T06:13:52;10.35;;;3.33;;
64011;SDS011;50211;52.768;12.124;2023-06-10T06:16:17;13.52;;;3.45;;
64011;SDS011;50211;52.768;12.124;2023-06-10T06:18:43;10.25;;;3.30;;
64011;SDS011;50211;52.768;12.124;2023-06-10T06:21:09;9.55;;;3.30;;
64011;SDS011;50211;52.768;12.124;2023-06-10T06:23:34;15.63;;;4.10;;
64011;SDS011;50211;52.768;12.124;2023-06-10T06:26:00;9.00;;;3.42;;
64011;SDS011;50211;52.768;12.124;2023-06-10T06:28:26;9.25;;;3.55;;
64011;SDS011;50211;52.768;12.124;2023-06-10T06:30:54;11.50;;;3.63;;
64011;SDS011;50211;52.768;12.124;2023-06-10T06:33:20;14.38;;;3.50;;
64011;SDS011;50211;52.768;12.124;2023-06-10T06:35:46;7.30;;;3.70;;
64011;SDS011;50211;52.768;12.124;2023-06-10T06:38:11;6.88;;;3.33;;
64011;SDS011;50211;52.768;12.124;2023-06-10T06:40:37;13.35;;;6.35;;
64011;SDS011;50211;52.768;12.124;2023-06-10T06:43:02;15.20;;;13.50;;
64011;SDS011;50211;52.768;12.124;2023-06-10T06:45:28;12.40;;;6.32;;
64011;SDS011;50211;52.768;12.124;2023-06-10T06:47:53;13.55;;;10.10;;
64011;SDS011;50211;52.768;12.124;2023-06-10T06:50:19;11.18;;;5.90;;
64011;SDS011;50211;52.768;12.124;2023-06-10T06:52:44;13.50;;;9.55;;
64011;SDS011;50211;52.768;12.124;2023-06-10T06:55:10;324.83;;;176.75;;
64011;SDS011;50211;52.768;12.124;2023-06-10T06:57:35;26.48;;;23.75;;
64011;SDS011;50211;52.768;12.124;2023-06-10T07:00:01;145.05;;;44.45;;
64011;SDS011;50211;52.768;12.124;2023-06-10T07:02:27;136.75;;;35.75;;
64011;SDS011;50211;52.768;12.124;2023-06-10T07:04:53;153.50;;;51.83;;
64011;SDS011;50211;52.768;12.124;2023-06-10T07:07:20;309.38;;;104.25;;
64011;SDS011;50211;52.768;12.124;2023-06-10T07:09:46;137.05;;;41.90;;
64011;SDS011;50211;52.768;12.124;2023-06-10T07:12:12;514.67;;;147.02;;
64011;SDS011;50211;52.768;12.124;2023-06-10T07:14:37;251.80;;;59.75;;
64011;SDS011;50211;52.768;12.124;2023-06-10T07:17:03;223.18;;;53.92;;
64011;SDS011;50211;52.768;12.124;2023-06-10T07:19:28;187.68;;;46.00;;
64011;SDS011;50211;52.768;12.124;2023-06-10T07:21:54;389.83;;;144.40;;
64011;SDS011;50211;52.768;12.124;2023-06-10T07:24:19;324.42;;;113.45;;
64011;SDS011;50211;52.768;12.124;2023-06-10T07:26:45;179.18;;;51.95;;
64011;SDS011;50211;52.768;12.124;2023-06-10T07:29:11;129.02;;;33.25;;
64011;SDS011;50211;52.768;12.124;2023-06-10T07:31:37;611.55;;;151.18;;
64011;SDS011;50211;52.768;12.124;2023-06-10T07:34:03;280.90;;;66.25;;
64011;SDS011;50211;52.768;12.124;2023-06-10T07:36:28;225.85;;;84.03;;
64011;SDS011;50211;52.768;12.124;2023-06-10T07:38:54;215.45;;;63.45;;
64011;SDS011;50211;52.768;12.124;2023-06-10T07:41:20;398.83;;;118.43;;
64011;SDS011;50211;52.768;12.124;2023-06-10T07:43:45;201.00;;;54.65;;
64011;SDS011;50211;52.768;12.124;2023-06-10T07:46:11;168.60;;;42.20;;
64011;SDS011;50211;52.768;12.124;2023-06-10T07:48:36;323.55;;;80.05;;
64011;SDS011;50211;52.768;12.124;2023-06-10T07:51:02;266.63;;;67.88;;
64011;SDS011;50211;52.768;12.124;2023-06-10T07:53:27;226.63;;;59.50;;
64011;SDS011;50211;52.768;12.124;2023-06-10T07:55:53;128.10;;;35.88;;
64011;SDS011;50211;52.768;12.124;2023-06-10T07:58:19;18.13;;;6.75;;
64011;SDS011;50211;52.768;12.124;2023-06-10T08:00:46;293.25;;;117.30;;
64011;SDS011;50211;52.768;12.124;2023-06-10T08:03:11;11.90;;;6.32;;
64011;SDS011;50211;52.768;12.124;2023-06-10T08:05:38;32.22;;;9.85;;
64011;SDS011;50211;52.768;12.124;2023-06-10T08:08:04;299.20;;;61.58;;
64011;SDS011;50211;52.768;12.124;2023-06-10T08:10:30;31.08;;;9.75;;
64011;SDS011;50211;52.768;12.124;2023-06-10T08:12:55;57.95;;;15.82;;
64011;SDS011;50211;52.768;12.124;2023-06-10T08:15:21;135.48;;;33.42;;
64011;SDS011;50211;52.768;12.124;2023-06-10T08:17:46;608.17;;;192.18;;
64011;SDS011;50211;52.768;12.124;2023-06-10T08:20:12;103.45;;;35.08;;
64011;SDS011;50211;52.768;12.124;2023-06-10T08:22:37;268.08;;;59.75;;
64011;SDS011;50211;52.768;12.124;2023-06-10T08:25:03;328.75;;;78.15;;
64011;SDS011;50211;52.768;12.124;2023-06-10T08:27:29;217.05;;;56.42;;
64011;SDS011;50211;52.768;12.124;2023-06-10T08:29:54;59.97;;;19.83;;
64011;SDS011;50211;52.768;12.124;2023-06-10T08:32:20;29.33;;;12.00;;
64011;SDS011;50211;52.768;12.124;2023-06-10T08:34:45;46.83;;;16.80;;
64011;SDS011;50211;52.768;12.124;2023-06-10T08:37:11;157.13;;;48.88;;
64011;SDS011;50211;52.768;12.124;2023-06-10T08:39:36;48.58;;;18.55;;
64011;SDS011;50211;52.768;12.124;2023-06-10T08:42:11;54.67;;;17.67;;
64011;SDS011;50211;52.768;12.124;2023-06-10T08:44:58;47.15;;;26.98;;
64011;SDS011;50211;52.768;12.124;2023-06-10T08:47:27;231.02;;;64.68;;
64011;SDS011;50211;52.768;12.124;2023-06-10T08:49:56;134.05;;;37.28;;
64011;SDS011;50211;52.768;12.124;2023-06-10T08:52:28;30.95;;;10.88;;
64011;SDS011;50211;52.768;12.124;2023-06-10T08:54:59;128.32;;;43.55;;
64011;SDS011;50211;52.768;12.124;2023-06-10T08:57:27;108.00;;;39.38;;
64011;SDS011;50211;52.768;12.124;2023-06-10T08:59:55;85.07;;;29.83;;
64011;SDS011;50211;52.768;12.124;2023-06-10T09:02:22;61.85;;;22.95;;
64011;SDS011;50211;52.768;12.124;2023-06-10T09:04:49;100.10;;;39.92;;
64011;SDS011;50211;52.768;12.124;2023-06-10T09:07:16;54.05;;;21.92;;
64011;SDS011;50211;52.768;12.124;2023-06-10T09:09:42;20.17;;;10.30;;
64011;SDS011;50211;52.768;12.124;2023-06-10T09:12:08;20.40;;;9.02;;
64011;SDS011;50211;52.768;12.124;2023-06-10T09:14:34;41.28;;;18.33;;
64011;SDS011;50211;52.768;12.124;2023-06-10T09:17:00;28.55;;;14.68;;
64011;SDS011;50211;52.768;12.124;2023-06-10T09:19:26;48.45;;;20.85;;
64011;SDS011;50211;52.768;12.124;2023-06-10T09:21:53;30.75;;;16.15;;
64011;SDS011;50211;52.768;12.124;2023-06-10T09:24:18;73.47;;;34.25;;
64011;SDS011;50211;52.768;12.124;2023-06-10T09:26:45;48.03;;;21.17;;
64011;SDS011;50211;52.768;12.124;2023-06-10T09:29:11;27.95;;;13.02;;
64011;SDS011;50211;52.768;12.124;2023-06-10T09:31:37;63.90;;;27.63;;
64011;SDS011;50211;52.768;12.124;2023-06-10T09:34:11;45.05;;;22.17;;
64011;SDS011;50211;52.768;12.124;2023-06-10T09:36:39;57.25;;;26.40;;
64011;SDS011;50211;52.768;12.124;2023-06-10T09:39:06;55.85;;;23.75;;
64011;SDS011;50211;52.768;12.124;2023-06-10T09:41:41;82.78;;;32.67;;
64011;SDS011;50211;52.768;12.124;2023-06-10T09:44:14;12.13;;;6.07;;
64011;SDS011;50211;52.768;12.124;2023-06-10T09:46:41;61.42;;;24.33;;
64011;SDS011;50211;52.768;12.124;2023-06-10T09:49:07;32.50;;;15.30;;
64011;SDS011;50211;52.768;12.124;2023-06-10T09:51:33;67.95;;;27.63;;
64011;SDS011;50211;52.768;12.124;2023-06-10T09:53:59;10.63;;;5.68;;
64011;SDS011;50211;52.768;12.124;2023-06-10T09:56:33;48.53;;;19.15;;
64011;SDS011;50211;52.768;12.124;2023-06-10T09:59:00;25.75;;;12.45;;
64011;SDS011;50211;52.768;12.124;2023-06-10T10:01:25;29.55;;;15.27;;
64011;SDS011;50211;52.768;12.124;2023-06-10T10:03:51;10.10;;;5.97;;
64011;SDS011;50211;52.768;12.124;2023-06-10T10:06:17;11.55;;;6.57;;
64011;SDS011;50211;52.768;12.124;2023-06-10T10:08:45;14.00;;;8.70;;
64011;SDS011;50211;52.768;12.124;2023-06-10T10:11:12;11.93;;;6.15;;
64011;SDS011;50211;52.768;12.124;2023-06-10T10:13:38;9.93;;;6.90;;
64011;SDS011;50211;52.768;12.124;2023-06-10T10:16:06;10.15;;;6.25;;
64011;SDS011;50211;52.768;12.124;2023-06-10T10:18:37;9.75;;;5.85;;
64011;SDS011;50211;52.768;12.124;2023-06-10T10:21:08;11.45;;;5.25;;
64011;SDS011;50211;52.768;12.124;2023-06-10T10:23:46;9.48;;;5.55;;
64011;SDS011;50211;52.768;12.124;2023-06-10T10:26:26;11.30;;;5.68;;
64011;SDS011;50211;52.768;12.124;2023-06-10T10:28:58;7.43;;;5.25;;
64011;SDS011;50211;52.768;12.124;2023-06-10T10:31:46;10.68;;;5.63;;
64011;SDS011;50211;52.768;12.124;2023-06-10T10:34:15;7.43;;;5.32;;
64011;SDS011;50211;52.768;12.124;2023-06-10T10:36:43;5.70;;;4.93;;
64011;SDS011;50211;52.768;12.124;2023-06-10T10:39:10;7.90;;;4.97;;
64011;SDS011;50211;52.768;12.124;2023-06-10T10:41:37;10.27;;;5.50;;
64011;SDS011;50211;52.768;12.124;2023-06-10T10:44:03;8.02;;;5.22;;
64011;SDS011;50211;52.768;12.124;2023-06-10T10:46:41;10.85;;;5.82;;
64011;SDS011;50211;52.768;12.124;2023-06-10T10:49:17;9.00;;;5.65;;
64011;SDS011;50211;52.768;12.124;2023-06-10T10:51:55;9.95;;;6.53;;
64011;SDS011;50211;52.768;12.124;2023-06-10T10:54:31;11.57;;;6.63;;
64011;SDS011;50211;52.768;12.124;2023-06-10T11:02:57;10.10;;;5.55;;
64011;SDS011;50211;52.768;12.124;2023-06-10T11:05:08;6.57;;;4.78;;
64011;SDS011;50211;52.768;12.124;2023-06-10T11:07:35;8.32;;;4.90;;
64011;SDS011;50211;52.768;12.124;2023-06-10T11:10:10;8.73;;;5.05;;
64011;SDS011;50211;52.768;12.124;2023-06-10T11:12:55;8.20;;;5.22;;
64011;SDS011;50211;52.768;12.124;2023-06-10T11:15:23;8.43;;;5.25;;
64011;SDS011;50211;52.768;12.124;2023-06-10T11:26:16;9.63;;;5.55;;
64011;SDS011;50211;52.768;12.124;2023-06-10T11:31:20;7.57;;;5.35;;
64011;SDS011;50211;52.768;12.124;2023-06-10T11:33:47;8.15;;;5.30;;
64011;SDS011;50211;52.768;12.124;2023-06-10T11:36:16;9.23;;;5.47;;
64011;SDS011;50211;52.768;12.124;2023-06-10T11:38:42;7.93;;;5.00;;
64011;SDS011;50211;52.768;12.124;2023-06-10T11:41:08;8.75;;;5.63;;
64011;SDS011;50211;52.768;12.124;2023-06-10T11:43:35;8.40;;;5.65;;
64011;SDS011;50211;52.768;12.124;2023-06-10T11:46:01;17.42;;;5.88;;
64011;SDS011;50211;52.768;12.124;2023-06-10T11:48:27;9.20;;;5.65;;
64011;SDS011;50211;52.768;12.124;2023-06-10T11:50:55;7.80;;;5.65;;
64011;SDS011;50211;52.768;12.124;2023-06-10T11:53:20;10.77;;;5.75;;
64011;SDS011;50211;52.768;12.124;2023-06-10T11:55:47;7.72;;;5.47;;
64011;SDS011;50211;52.768;12.124;2023-06-10T12:00:46;9.25;;;5.32;;
64011;SDS011;50211;52.768;12.124;2023-06-10T12:03:19;6.18;;;5.53;;
64011;SDS011;50211;52.768;12.124;2023-06-10T12:06:01;7.45;;;5.10;;
64011;SDS011;50211;52.768;12.124;2023-06-10T12:08:30;5.72;;;5.13;;
64011;SDS011;50211;52.768;12.124;2023-06-10T12:10:57;9.27;;;5.63;;
64011;SDS011;50211;52.768;12.124;2023-06-10T12:13:25;9.00;;;5.25;;
64011;SDS011;50211;52.768;12.124;2023-06-10T12:15:51;7.85;;;5.10;;
64011;SDS011;50211;52.768;12.124;2023-06-10T12:18:18;7.68;;;5.80;;
64011;SDS011;50211;52.768;12.124;2023-06-10T12:20:47;8.20;;;5.30;;
64011;SDS011;50211;52.768;12.124;2023-06-10T12:23:14;10.40;;;5.82;;
64011;SDS011;50211;52.768;12.124;2023-06-10T12:25:49;12.20;;;5.30;;
64011;SDS011;50211;52.768;12.124;2023-06-10T12:28:16;10.05;;;5.97;;
64011;SDS011;50211;52.768;12.124;2023-06-10T12:30:44;10.10;;;5.68;;
64011;SDS011;50211;52.768;12.124;2023-06-10T12:33:19;9.77;;;5.80;;
64011;SDS011;50211;52.768;12.124;2023-06-10T12:38:20;7.93;;;5.70;;
64011;SDS011;50211;52.768;12.124;2023-06-10T12:40:47;7.40;;;5.43;;
64011;SDS011;50211;52.768;12.124;2023-06-10T12:43:13;18.73;;;5.28;;
64011;SDS011;50211;52.768;12.124;2023-06-10T12:45:43;16.13;;;6.13;;
64011;SDS011;50211;52.768;12.124;2023-06-10T12:48:19;7.30;;;5.78;;
64011;SDS011;50211;52.768;12.124;2023-06-10T12:50:49;8.15;;;5.38;;
64011;SDS011;50211;52.768;12.124;2023-06-10T12:53:19;7.47;;;5.70;;
64011;SDS011;50211;52.768;12.124;2023-06-10T12:55:45;9.13;;;5.20;;
64011;SDS011;50211;52.768;12.124;2023-06-10T12:58:12;11.35;;;5.13;;
64011;SDS011;50211;52.768;12.124;2023-06-10T13:00:38;8.05;;;5.88;;
64011;SDS011;50211;52.768;12.124;2023-06-10T13:03:04;11.63;;;5.53;;
64011;SDS011;50211;52.768;12.124;2023-06-10T13:05:33;11.27;;;5.63;;
64011;SDS011;50211;52.768;12.124;2023-06-10T13:08:02;9.95;;;6.18;;
64011;SDS011;50211;52.768;12.124;2023-06-10T13:10:28;14.80;;;6.47;;
64011;SDS011;50211;52.768;12.124;2023-06-10T13:12:53;10.48;;;6.25;;
64011;SDS011;50211;52.768;12.124;2023-06-10T13:15:22;6.50;;;5.70;;
64011;SDS011;50211;52.768;12.124;2023-06-10T13:17:47;9.35;;;5.20;;
64011;SDS011;50211;52.768;12.124;2023-06-10T13:20:14;9.40;;;6.65;;
64011;SDS011;50211;52.768;12.124;2023-06-10T13:22:41;8.77;;;5.60;;
64011;SDS011;50211;52.768;12.124;2023-06-10T13:25:06;11.25;;;6.15;;
64011;SDS011;50211;52.768;12.124;2023-06-10T13:27:33;6.43;;;5.60;;
64011;SDS011;50211;52.768;12.124;2023-06-10T13:29:58;6.85;;;5.55;;
64011;SDS011;50211;52.768;12.124;2023-06-10T13:32:24;8.52;;;4.80;;
64011;SDS011;50211;52.768;12.124;2023-06-10T13:34:49;6.57;;;5.30;;
64011;SDS011;50211;52.768;12.124;2023-06-10T13:37:15;6.25;;;4.85;;
64011;SDS011;50211;52.768;12.124;2023-06-10T13:39:45;8.57;;;4.50;;
64011;SDS011;50211;52.768;12.124;2023-06-10T13:42:15;5.30;;;4.80;;
64011;SDS011;50211;52.768;12.124;2023-06-10T13:44:41;7.28;;;4.70;;
64011;SDS011;50211;52.768;12.124;2023-06-10T13:47:07;8.48;;;4.40;;
64011;SDS011;50211;52.768;12.124;2023-06-10T13:49:33;5.15;;;4.50;;
64011;SDS011;50211;52.768;12.124;2023-06-10T13:51:58;6.55;;;4.45;;
64011;SDS011;50211;52.768;12.124;2023-06-10T13:54:24;8.43;;;4.38;;
64011;SDS011;50211;52.768;12.124;2023-06-10T13:56:49;7.97;;;3.90;;
64011;SDS011;50211;52.768;12.124;2023-06-10T13:59:15;4.55;;;4.15;;
64011;SDS011;50211;52.768;12.124;2023-06-10T14:01:40;4.50;;;3.97;;
64011;SDS011;50211;52.768;12.124;2023-06-10T14:04:06;7.15;;;4.10;;
64011;SDS011;50211;52.768;12.124;2023-06-10T14:06:32;4.97;;;4.07;;
64011;SDS011;50211;52.768;12.124;2023-06-10T14:08:58;6.88;;;4.35;;
64011;SDS011;50211;52.768;12.124;2023-06-10T14:11:27;8.45;;;4.25;;
64011;SDS011;50211;52.768;12.124;2023-06-10T14:13:53;4.97;;;4.22;;
64011;SDS011;50211;52.768;12.124;2023-06-10T14:16:21;6.70;;;4.05;;
64011;SDS011;50211;52.768;12.124;2023-06-10T14:18:46;7.10;;;3.88;;
64011;SDS011;50211;52.768;12.124;2023-06-10T14:21:12;7.75;;;3.85;;
64011;SDS011;50211;52.768;12.124;2023-06-10T14:23:37;4.07;;;3.60;;
64011;SDS011;50211;52.768;12.124;2023-06-10T14:26:03;8.45;;;3.97;;
64011;SDS011;50211;52.768;12.124;2023-06-10T14:28:30;5.20;;;4.03;;
64011;SDS011;50211;52.768;12.124;2023-06-10T14:30:56;4.80;;;3.85;;
64011;SDS011;50211;52.768;12.124;2023-06-10T14:33:22;4.63;;;3.55;;
64011;SDS011;50211;52.768;12.124;2023-06-10T14:35:48;7.78;;;3.50;;
64011;SDS011;50211;52.768;12.124;2023-06-10T14:38:13;3.97;;;3.58;;
64011;SDS011;50211;52.768;12.124;2023-06-10T14:40:39;4.68;;;3.90;;
64011;SDS011;50211;52.768;12.124;2023-06-10T14:43:04;3.53;;;3.22;;
64011;SDS011;50211;52.768;12.124;2023-06-10T14:45:34;4.32;;;3.78;;
64011;SDS011;50211;52.768;12.124;2023-06-10T14:48:04;4.07;;;3.53;;
64011;SDS011;50211;52.768;12.124;2023-06-10T14:50:30;3.90;;;3.60;;